Time;durP1;ratioP1;P1;durP2;ratioP2;P2;SDS_P1;SDS_P2;PMS_P1;PMS_P2;Temp;Humidity;BMP_temperature;BMP_pressure;BME280_temperature;BME280_humidity;BME280_pressure;Samples;Min_cycle;Max_cycle;Signal;HPM_P1;HPM_P2
2020/12/05 00:01:02;;;;;;;6.28;5.20;;;19.00;45.00;;;;;;5048869;28;20021;-44
2020/12/05 00:03:27;;;;;;;5.22;4.22;;;19.00;45.00;;;;;;5042104;28;20055;-46
2020/12/05 00:05:53;;;;;;;6.40;4.53;;;19.00;45.00;;;;;;5046063;28;20021;-44
2020/12/05 00:08:18;;;;;;;6.50;4.80;;;19.00;45.60;;;;;;5044843;28;20502;-45
2020/12/05 00:10:44;;;;;;;6.38;4.80;;;19.00;45.00;;;;;;5039077;28;20080;-44
2020/12/05 00:13:09;;;;;;;6.80;4.82;;;19.00;45.00;;;;;;5042144;28;20041;-44
2020/12/05 00:15:35;;;;;;;5.72;4.60;;;19.00;44.90;;;;;;5042243;28;20029;-44
2020/12/05 00:18:00;;;;;;;6.32;4.78;;;19.10;45.00;;;;;;5042607;28;20029;-47
2020/12/05 00:20:26;;;;;;;5.05;4.10;;;19.00;45.00;;;;;;5048886;28;20043;-45
2020/12/05 00:22:51;;;;;;;5.35;4.40;;;19.00;45.00;;;;;;5058262;28;20444;-45
2020/12/05 00:25:17;;;;;;;5.93;4.60;;;19.00;45.00;;;;;;5048412;28;20090;-46
2020/12/05 00:27:42;;;;;;;6.15;4.80;;;19.00;45.60;;;;;;5052056;28;20116;-45
2020/12/05 00:30:08;;;;;;;5.75;4.45;;;19.10;45.00;;;;;;5048522;28;20068;-45
2020/12/05 00:32:33;;;;;;;4.88;4.25;;;19.10;45.00;;;;;;5061381;28;20036;-44
2020/12/05 00:34:59;;;;;;;6.03;4.63;;;19.10;45.00;;;;;;5062802;28;20405;-44
2020/12/05 00:37:28;;;;;;;5.30;4.55;;;19.10;45.10;;;;;;5062319;28;20032;-45
2020/12/05 00:39:54;;;;;;;8.48;4.95;;;19.00;45.60;;;;;;5044424;28;20366;-45
2020/12/05 00:42:19;;;;;;;5.30;4.30;;;19.10;45.10;;;;;;5061014;28;20047;-45
2020/12/05 00:44:45;;;;;;;7.05;4.93;;;19.10;45.10;;;;;;5061817;28;20020;-44
2020/12/05 00:47:10;;;;;;;6.00;4.90;;;19.10;45.70;;;;;;5051130;28;20058;-45
2020/12/05 00:49:36;;;;;;;5.32;4.70;;;19.10;45.10;;;;;;5042308;28;20098;-45
2020/12/05 00:52:02;;;;;;;5.80;4.95;;;19.10;45.10;;;;;;5043640;28;20029;-45
2020/12/05 00:54:27;;;;;;;5.30;4.13;;;19.10;45.10;;;;;;5044532;28;20413;-45
2020/12/05 00:56:53;;;;;;;6.25;4.30;;;19.10;45.10;;;;;;5044503;28;20082;-45
2020/12/05 00:59:18;;;;;;;5.75;4.50;;;19.10;45.10;;;;;;5045149;28;20505;-44
2020/12/05 01:01:44;;;;;;;6.20;4.80;;;19.10;45.10;;;;;;5043714;28;20056;-45
2020/12/05 01:04:09;;;;;;;5.35;4.53;;;19.10;45.10;;;;;;5044432;28;20053;-45
2020/12/05 01:06:35;;;;;;;5.13;4.28;;;19.10;45.10;;;;;;5042725;28;20040;-45
2020/12/05 01:09:00;;;;;;;4.95;4.40;;;19.10;45.10;;;;;;5044949;28;20053;-44
2020/12/05 01:11:26;;;;;;;5.47;4.40;;;19.10;45.10;;;;;;5043676;28;21800;-46
2020/12/05 01:13:51;;;;;;;5.78;4.70;;;19.10;45.10;;;;;;5044570;28;20067;-45
2020/12/05 01:16:17;;;;;;;6.13;5.22;;;19.10;45.10;;;;;;5044626;28;20045;-45
2020/12/05 01:18:43;;;;;;;6.57;4.50;;;19.10;45.10;;;;;;5044171;28;20079;-44
2020/12/05 01:21:09;;;;;;;6.00;4.78;;;19.10;45.10;;;;;;5043753;28;20368;-44
2020/12/05 01:23:35;;;;;;;5.22;4.30;;;19.10;45.10;;;;;;5043447;28;20037;-45
2020/12/05 01:26:00;;;;;;;6.07;4.72;;;19.10;45.10;;;;;;5027158;28;20036;-45
2020/12/05 01:28:26;;;;;;;5.07;4.07;;;19.10;45.10;;;;;;5064024;28;20033;-44
2020/12/05 01:30:51;;;;;;;5.78;4.55;;;19.10;45.10;;;;;;5057014;28;20402;-46
2020/12/05 01:33:17;;;;;;;4.90;4.40;;;19.10;45.10;;;;;;5043844;28;20065;-46
2020/12/05 01:35:42;;;;;;;6.22;5.13;;;19.10;45.10;;;;;;5044286;28;20029;-45
2020/12/05 01:38:08;;;;;;;6.32;5.00;;;19.10;45.10;;;;;;5043677;28;20371;-46
2020/12/05 01:40:33;;;;;;;4.90;4.30;;;19.10;45.10;;;;;;5025630;28;20048;-47
2020/12/05 01:42:59;;;;;;;5.15;4.05;;;19.10;45.10;;;;;;5043943;28;20119;-44
2020/12/05 01:45:24;;;;;;;5.32;4.63;;;19.10;45.10;;;;;;5043903;28;20505;-44
2020/12/05 01:47:50;;;;;;;5.35;4.60;;;19.10;45.20;;;;;;5043582;28;20044;-44
2020/12/05 01:50:16;;;;;;;5.45;4.47;;;19.10;45.20;;;;;;5025872;28;20045;-44
2020/12/05 01:52:41;;;;;;;4.97;4.10;;;19.00;45.20;;;;;;5043583;28;20062;-44
2020/12/05 01:55:07;;;;;;;6.50;5.50;;;19.00;45.20;;;;;;5041256;28;20037;-43
2020/12/05 01:57:32;;;;;;;5.97;4.80;;;19.00;45.30;;;;;;5044423;28;20513;-45
2020/12/05 01:59:58;;;;;;;6.72;4.80;;;19.00;45.30;;;;;;5043272;28;20056;-45
2020/12/05 02:02:23;;;;;;;4.90;4.38;;;19.00;45.40;;;;;;5042053;28;20045;-44
2020/12/05 02:04:58;;;;;;;7.32;5.25;;;18.90;45.30;;;;;;5025820;28;20068;-44
2020/12/05 02:07:28;;;;;;;5.50;4.47;;;18.90;45.40;;;;;;5051911;28;20087;-44
2020/12/05 02:09:55;;;;;;;5.22;4.40;;;18.90;45.40;;;;;;5042021;28;20235;-44
2020/12/05 02:12:34;;;;;;;4.97;4.47;;;18.90;45.40;;;;;;5024996;28;20522;-44
2020/12/05 02:15:20;;;;;;;5.93;4.75;;;18.90;45.40;;;;;;5026247;28;20117;-44
2020/12/05 02:17:50;;;;;;;;;;;18.80;45.50;;;;;;5026209;28;20368;-46
2020/12/05 02:20:15;;;;;;;4.75;3.90;;;18.80;45.50;;;;;;5026218;28;19912;-44
2020/12/05 02:22:43;;;;;;;5.03;4.30;;;18.80;45.40;;;;;;5008999;28;20118;-45
2020/12/05 02:25:09;;;;;;;4.85;4.32;;;18.80;45.60;;;;;;5043511;28;20033;-44
2020/12/05 02:27:35;;;;;;;5.05;4.05;;;18.70;45.40;;;;;;5026387;28;20040;-43
2020/12/05 02:30:01;;;;;;;5.18;4.40;;;18.70;45.40;;;;;;5026113;28;20029;-44
2020/12/05 02:32:26;;;;;;;5.07;4.57;;;18.70;45.50;;;;;;5042743;28;20044;-44
2020/12/05 02:34:52;;;;;;;4.75;4.30;;;18.70;45.50;;;;;;5043721;28;20033;-44
2020/12/05 02:37:19;;;;;;;5.50;4.75;;;18.70;45.50;;;;;;5046494;28;20063;-45
2020/12/05 02:39:45;;;;;;;5.32;4.82;;;18.70;45.50;;;;;;5046272;28;20039;-44
2020/12/05 02:42:13;;;;;;;6.20;5.00;;;18.70;45.60;;;;;;5044620;28;20036;-44
2020/12/05 02:44:45;;;;;;;5.30;4.68;;;18.80;45.60;;;;;;5063186;28;20723;-44
2020/12/05 02:47:11;;;;;;;4.88;4.15;;;18.70;45.50;;;;;;5062407;28;20595;-43
2020/12/05 02:49:36;;;;;;;5.72;4.65;;;18.80;45.50;;;;;;5064009;28;20037;-45
2020/12/05 02:52:02;;;;;;;4.78;4.15;;;18.80;45.50;;;;;;5077244;22;20696;-68
2020/12/05 02:54:28;;;;;;;4.43;3.95;;;18.80;45.40;;;;;;5036372;28;20025;-68
2020/12/05 02:56:54;;;;;;;5.35;4.30;;;18.80;45.40;;;;;;5001021;28;20410;-68
2020/12/05 02:59:19;;;;;;;5.43;4.40;;;18.80;45.30;;;;;;4985914;28;20037;-68
2020/12/05 03:01:45;;;;;;;5.85;4.00;;;18.80;45.30;;;;;;5019890;28;20128;-68
2020/12/05 03:04:10;;;;;;;5.25;4.60;;;18.80;45.30;;;;;;4995340;28;20033;-68
2020/12/05 03:06:36;;;;;;;5.43;4.47;;;18.80;45.30;;;;;;4965563;28;20032;-67
2020/12/05 03:09:01;;;;;;;5.43;4.32;;;18.80;45.30;;;;;;5006139;28;20160;-67
2020/12/05 03:11:27;;;;;;;4.60;3.90;;;18.90;45.40;;;;;;5017760;28;20035;-67
2020/12/05 03:13:52;;;;;;;5.50;4.40;;;18.90;45.30;;;;;;5009455;28;20116;-68
2020/12/05 03:16:18;;;;;;;4.10;3.70;;;18.90;45.30;;;;;;5035058;28;20422;-67
2020/12/05 03:18:43;;;;;;;4.22;3.67;;;18.90;45.30;;;;;;5017122;28;20601;-67
2020/12/05 03:21:09;;;;;;;5.47;4.25;;;18.90;45.90;;;;;;5019206;28;20012;-67
2020/12/05 03:23:34;;;;;;;4.57;3.88;;;18.90;45.30;;;;;;5018583;28;20056;-67
2020/12/05 03:26:00;;;;;;;4.93;4.07;;;18.90;45.20;;;;;;5036198;28;20363;-67
2020/12/05 03:28:26;;;;;;;5.10;4.50;;;18.90;45.20;;;;;;5001457;28;20048;-67
2020/12/05 03:30:51;;;;;;;4.05;3.42;;;19.00;45.30;;;;;;5037202;28;20471;-68
2020/12/05 03:33:17;;;;;;;4.45;3.65;;;18.90;45.20;;;;;;5036011;28;20090;-67
2020/12/05 03:35:43;;;;;;;3.65;3.35;;;18.90;45.20;;;;;;5036738;28;20051;-67
2020/12/05 03:38:08;;;;;;;3.88;3.30;;;19.00;45.20;;;;;;5035649;28;20056;-67
2020/12/05 03:40:37;;;;;;;4.57;3.88;;;19.00;45.20;;;;;;5036660;28;20123;-68
2020/12/05 03:43:03;;;;;;;4.88;3.83;;;19.00;45.20;;;;;;5019078;28;20020;-67
2020/12/05 03:45:28;;;;;;;4.90;4.28;;;19.00;45.20;;;;;;5008932;28;20029;-68
2020/12/05 03:47:54;;;;;;;4.30;3.85;;;19.00;45.20;;;;;;5016270;28;20414;-68
2020/12/05 03:50:19;;;;;;;4.72;3.85;;;19.00;45.80;;;;;;5000907;28;20446;-68
2020/12/05 03:52:45;;;;;;;4.20;3.70;;;19.00;45.20;;;;;;5020166;28;20087;-68
2020/12/05 03:55:11;;;;;;;4.10;3.53;;;19.00;45.20;;;;;;5015634;28;20022;-68
2020/12/05 03:57:36;;;;;;;4.38;3.70;;;19.00;45.20;;;;;;5015072;28;20496;-68
2020/12/05 04:00:04;;;;;;;4.32;3.72;;;19.00;45.10;;;;;;4982186;28;20029;-68
2020/12/05 04:02:29;;;;;;;4.55;4.05;;;19.00;45.10;;;;;;4981436;28;20065;-68
2020/12/05 04:04:55;;;;;;;4.80;3.97;;;19.00;45.10;;;;;;5006542;28;20060;-68
2020/12/05 04:07:20;;;;;;;4.03;3.50;;;19.00;45.10;;;;;;5032161;28;20485;-67
2020/12/05 04:09:46;;;;;;;4.45;3.80;;;19.00;45.10;;;;;;5033572;28;20044;-68
2020/12/05 04:12:11;;;;;;;4.57;3.88;;;19.00;45.10;;;;;;5008083;28;20038;-68
2020/12/05 04:14:37;;;;;;;4.68;4.03;;;19.00;45.10;;;;;;5016035;28;20028;-68
2020/12/05 04:17:02;;;;;;;3.67;3.13;;;18.90;45.10;;;;;;5021768;28;20368;-67
2020/12/05 04:19:28;;;;;;;4.80;4.20;;;18.90;45.00;;;;;;5025931;28;20405;-68
2020/12/05 04:21:53;;;;;;;5.03;3.75;;;18.90;45.20;;;;;;5015092;28;20029;-68
2020/12/05 04:24:19;;;;;;;3.92;3.55;;;19.00;45.20;;;;;;5035710;28;20060;-68
2020/12/05 04:26:44;;;;;;;4.22;3.83;;;18.90;45.20;;;;;;5019337;28;20364;-68
2020/12/05 04:29:10;;;;;;;5.22;3.90;;;18.90;45.30;;;;;;5037062;28;20079;-67
2020/12/05 04:31:35;;;;;;;4.75;3.95;;;18.90;45.30;;;;;;5024216;28;20791;-68
2020/12/05 04:34:00;;;;;;;4.68;3.92;;;18.80;45.20;;;;;;5006980;28;20591;-68
2020/12/05 04:36:26;;;;;;;4.22;3.83;;;18.80;45.20;;;;;;5014361;28;20044;-68
2020/12/05 04:38:51;;;;;;;4.63;4.00;;;18.80;45.20;;;;;;5022252;28;20021;-67
2020/12/05 04:41:18;;;;;;;4.55;4.03;;;18.80;45.20;;;;;;5029491;28;20183;-68
2020/12/05 04:43:43;;;;;;;4.25;3.78;;;18.70;45.30;;;;;;5033015;28;20474;-68
2020/12/05 04:46:09;;;;;;;3.90;3.40;;;18.70;45.20;;;;;;5005623;28;20029;-67
2020/12/05 04:48:34;;;;;;;4.88;4.05;;;18.70;45.20;;;;;;5005437;28;20078;-67
2020/12/05 04:51:01;;;;;;;4.00;3.60;;;18.70;45.20;;;;;;5020895;28;20143;-67
2020/12/05 04:53:27;;;;;;;4.97;4.10;;;18.70;45.30;;;;;;5018307;28;20021;-69
2020/12/05 04:55:53;;;;;;;4.57;3.65;;;18.60;45.20;;;;;;4989538;28;20120;-68
2020/12/05 04:58:22;;;;;;;5.00;3.80;;;18.60;45.20;;;;;;5004694;28;20604;-69
2020/12/05 05:00:58;;;;;;;4.10;3.17;;;18.60;45.20;;;;;;5011439;28;20033;-69
2020/12/05 05:03:27;;;;;;;4.20;3.80;;;18.60;45.20;;;;;;4987035;28;20124;-69
2020/12/05 05:05:53;;;;;;;4.90;4.40;;;18.50;45.30;;;;;;4991612;28;20064;-69
2020/12/05 05:08:19;;;;;;;3.95;3.58;;;18.50;45.30;;;;;;5005589;28;20033;-69
2020/12/05 05:10:45;;;;;;;4.13;3.65;;;18.50;45.30;;;;;;5035713;28;20083;-69
2020/12/05 05:13:21;;;;;;;4.30;3.40;;;18.50;45.30;;;;;;5026605;28;20438;-70
2020/12/05 05:15:46;;;;;;;3.72;3.35;;;18.50;45.30;;;;;;4988313;28;20053;-68
2020/12/05 05:18:12;;;;;;;3.97;3.55;;;18.50;45.40;;;;;;4985150;28;20497;-69
2020/12/05 05:20:42;;;;;;;3.85;3.42;;;18.40;45.30;;;;;;5021726;28;20041;-69
2020/12/05 05:23:18;;;;;;;4.28;3.88;;;18.40;45.30;;;;;;5019718;28;20055;-69
2020/12/05 05:25:59;;;;;;;3.78;3.38;;;18.40;45.40;;;;;;5009128;28;20390;-69
2020/12/05 05:28:29;;;;;;;4.03;3.63;;;18.40;45.40;;;;;;5001710;28;20032;-69
2020/12/05 05:31:01;;;;;;;3.65;3.17;;;18.40;45.40;;;;;;5001238;28;20036;-69
2020/12/05 05:33:27;;;;;;;4.05;3.30;;;18.50;45.40;;;;;;5002257;28;20071;-69
2020/12/05 05:35:52;;;;;;;3.53;3.22;;;18.60;45.50;;;;;;5000708;28;20017;-69
2020/12/05 05:38:22;;;;;;;3.42;3.08;;;18.70;45.60;;;;;;5001359;28;20025;-70
2020/12/05 05:40:48;;;;;;;3.15;2.85;;;18.70;45.60;;;;;;4985669;28;20029;-69
2020/12/05 05:43:20;;;;;;;3.53;3.17;;;18.80;45.60;;;;;;5000618;28;20542;-68
2020/12/05 05:45:48;;;;;;;3.03;2.72;;;18.80;45.50;;;;;;4985825;28;20041;-69
2020/12/05 05:48:14;;;;;;;3.88;3.47;;;18.80;45.40;;;;;;5000852;28;20408;-69
2020/12/05 05:50:40;;;;;;;3.53;3.10;;;18.80;45.30;;;;;;5025052;28;20021;-69
2020/12/05 05:53:10;;;;;;;3.80;3.42;;;18.80;45.30;;;;;;5000171;28;20013;-69
2020/12/05 05:55:49;;;;;;;3.17;2.88;;;18.80;45.30;;;;;;5001550;28;20083;-69
2020/12/05 05:58:21;;;;;;;3.63;2.78;;;18.80;45.20;;;;;;4984005;28;20065;-69
2020/12/05 06:00:50;;;;;;;3.90;3.47;;;18.80;45.30;;;;;;5000084;28;20064;-69
2020/12/05 06:03:22;;;;;;;3.45;3.00;;;18.80;45.30;;;;;;5001276;28;20084;-69
2020/12/05 06:05:55;;;;;;;3.67;3.20;;;18.80;45.40;;;;;;5007417;28;20037;-69
2020/12/05 06:08:25;;;;;;;3.40;3.10;;;18.70;45.30;;;;;;5000979;28;20044;-69
2020/12/05 06:11:08;;;;;;;3.65;3.33;;;18.70;45.40;;;;;;4984954;28;20033;-69
2020/12/05 06:13:34;;;;;;;4.47;3.30;;;18.70;45.50;;;;;;4998759;28;20029;-69
2020/12/05 06:16:00;;;;;;;3.60;3.30;;;18.70;45.40;;;;;;4987630;28;20043;-69
2020/12/05 06:18:26;;;;;;;3.50;3.20;;;18.80;45.50;;;;;;5004736;28;20032;-69
2020/12/05 06:20:51;;;;;;;3.53;3.22;;;18.90;45.60;;;;;;4983441;28;20029;-69
2020/12/05 06:23:31;;;;;;;3.10;2.83;;;19.00;45.70;;;;;;5017612;28;20609;-69
2020/12/05 06:25:56;;;;;;;3.17;2.88;;;19.20;45.80;;;;;;5017767;28;20025;-69
2020/12/05 06:28:22;;;;;;;3.50;2.67;;;19.30;45.80;;;;;;5019477;28;20035;-69
2020/12/05 06:30:48;;;;;;;3.58;3.28;;;19.40;45.70;;;;;;5003392;28;20028;-68
2020/12/05 06:33:41;;;;;;;3.35;3.03;;;19.50;45.70;;;;;;5020419;28;20025;-69
2020/12/05 06:36:28;;;;;;;2.88;2.67;;;19.60;45.60;;;;;;5037944;28;20009;-68
2020/12/05 06:39:06;;;;;;;2.85;2.65;;;19.60;45.50;;;;;;5033101;28;20037;-69
2020/12/05 06:41:45;;;;;;;3.38;3.08;;;19.70;45.40;;;;;;5038429;28;20028;-69
2020/12/05 06:44:14;;;;;;;2.88;2.58;;;19.60;45.20;;;;;;5020028;28;20036;-69
2020/12/05 06:46:52;;;;;;;6.38;3.72;;;19.60;45.20;;;;;;5020001;28;20082;-69
2020/12/05 06:49:43;;;;;;;2.97;2.70;;;19.60;45.10;;;;;;5019492;28;20029;-69
2020/12/05 06:52:35;;;;;;;3.67;3.30;;;19.60;45.10;;;;;;4998588;28;20545;-69
2020/12/05 06:55:03;;;;;;;2.97;2.70;;;19.50;45.00;;;;;;4995824;28;20040;-69
2020/12/05 06:57:29;;;;;;;3.55;3.00;;;19.50;45.00;;;;;;5025873;28;20017;-69
2020/12/05 07:00:15;;;;;;;3.05;2.75;;;19.50;45.00;;;;;;5036340;28;20025;-69
2020/12/05 07:02:51;;;;;;;;;;;19.40;44.90;;;;;;5013401;28;20031;-69
2020/12/05 07:05:16;;;;;;;3.42;3.05;;;19.40;45.00;;;;;;4999847;23;19920;-57
2020/12/05 07:07:42;;;;;;;3.17;2.88;;;19.40;45.00;;;;;;4997298;28;20066;-57
2020/12/05 07:10:07;;;;;;;3.47;3.17;;;19.40;45.00;;;;;;5042418;28;20491;-55
2020/12/05 07:12:36;;;;;;;3.75;3.13;;;19.30;45.10;;;;;;5043058;28;20037;-57
2020/12/05 07:15:21;;;;;;;3.42;3.10;;;19.30;45.10;;;;;;5034817;28;20061;-57
2020/12/05 07:17:47;;;;;;;4.75;3.92;;;19.30;45.20;;;;;;5038243;28;20447;-57
2020/12/05 07:20:13;;;;;;;3.40;2.90;;;19.20;45.10;;;;;;5026533;28;20049;-58
2020/12/05 07:22:38;;;;;;;2.97;2.63;;;19.20;45.10;;;;;;5035515;28;20423;-57
2020/12/05 07:25:04;;;;;;;3.60;3.28;;;19.20;45.30;;;;;;5034902;28;20029;-57
2020/12/05 07:27:29;;;;;;;4.13;3.05;;;19.20;45.20;;;;;;5027280;28;20037;-58
2020/12/05 07:29:55;;;;;;;3.88;3.45;;;19.10;45.20;;;;;;5042498;28;20037;-58
2020/12/05 07:32:20;;;;;;;3.58;2.83;;;19.10;45.20;;;;;;5026734;28;20515;-60
2020/12/05 07:34:46;;;;;;;3.42;3.13;;;19.10;45.30;;;;;;5037940;28;20041;-59
2020/12/05 07:37:24;;;;;;;3.20;2.83;;;19.00;45.20;;;;;;5033662;28;20041;-58
2020/12/05 07:39:51;;;;;;;4.15;3.40;;;19.00;45.20;;;;;;5032092;28;20033;-59
2020/12/05 07:42:16;;;;;;;4.85;3.47;;;19.00;45.20;;;;;;5027912;28;20116;-58
2020/12/05 07:44:42;;;;;;;5.03;3.42;;;19.00;45.10;;;;;;5006017;28;20038;-61
2020/12/05 07:47:17;;;;;;;3.45;3.08;;;19.00;45.20;;;;;;5021500;28;20168;-60
2020/12/05 07:49:53;;;;;;;3.30;3.00;;;18.90;45.20;;;;;;5039168;28;20041;-61
2020/12/05 07:52:20;;;;;;;3.80;3.33;;;18.90;45.30;;;;;;5043190;28;20033;-61
2020/12/05 07:54:55;;;;;;;4.85;3.25;;;18.90;45.30;;;;;;5043733;28;20112;-60
2020/12/05 07:57:24;;;;;;;;;;;18.90;45.30;;;;;;5043996;28;20029;-61
2020/12/05 07:59:51;;;;;;;3.83;2.92;;;18.80;45.20;;;;;;5045817;28;20732;-61
2020/12/05 08:02:23;;;;;;;4.03;3.50;;;18.80;45.10;;;;;;5029296;28;20470;-62
2020/12/05 08:05:19;;;;;;;3.67;3.28;;;18.80;45.20;;;;;;5025715;28;20128;-57
2020/12/05 08:07:46;;;;;;;4.57;3.50;;;18.80;45.30;;;;;;4978499;28;20037;-58
2020/12/05 08:10:16;;;;;;;3.97;3.58;;;18.80;45.30;;;;;;5012780;28;20041;-59
2020/12/05 08:12:44;;;;;;;5.70;4.38;;;18.80;45.30;;;;;;5016354;28;20037;-60
2020/12/05 08:15:19;;;;;;;5.90;4.20;;;18.80;45.40;;;;;;5037730;28;20043;-58
2020/12/05 08:17:44;;;;;;;3.22;2.92;;;18.80;45.40;;;;;;5043861;28;20496;-58
2020/12/05 08:20:10;;;;;;;4.38;3.40;;;18.80;45.30;;;;;;5029307;28;20041;-58
2020/12/05 08:22:36;;;;;;;3.75;3.38;;;18.80;45.30;;;;;;5012175;28;20045;-58
2020/12/05 08:25:02;;;;;;;5.57;3.17;;;18.80;45.30;;;;;;5041886;28;20037;-59
2020/12/05 08:27:27;;;;;;;5.35;3.70;;;18.80;45.20;;;;;;5022865;28;20403;-59
2020/12/05 08:29:53;;;;;;;5.00;3.47;;;18.90;45.30;;;;;;5001687;28;20129;-58
2020/12/05 08:32:22;;;;;;;4.53;3.13;;;18.90;45.20;;;;;;5044824;28;20029;-56
2020/12/05 08:34:47;;;;;;;3.20;2.90;;;18.90;45.20;;;;;;5033481;28;20065;-57
2020/12/05 08:37:23;;;;;;;3.67;3.38;;;18.90;45.20;;;;;;5028640;28;20522;-57
2020/12/05 08:39:52;;;;;;;3.38;3.08;;;18.90;45.20;;;;;;5044448;28;20037;-60
2020/12/05 08:42:18;;;;;;;3.30;3.00;;;18.90;45.10;;;;;;5023574;28;20041;-57
2020/12/05 08:44:43;;;;;;;3.47;3.08;;;19.00;45.20;;;;;;5046373;28;20037;-54
2020/12/05 08:47:09;;;;;;;3.72;2.95;;;18.90;45.10;;;;;;5041524;28;20330;-57
2020/12/05 08:49:41;;;;;;;4.95;3.20;;;19.00;45.20;;;;;;5035430;28;20045;-55
2020/12/05 08:52:07;;;;;;;3.63;3.28;;;19.00;45.20;;;;;;5035982;28;20033;-56
2020/12/05 08:54:45;;;;;;;3.80;3.03;;;19.00;45.20;;;;;;5040473;28;20036;-57
2020/12/05 08:57:12;;;;;;;4.20;3.20;;;19.00;45.10;;;;;;5044490;28;20052;-54
2020/12/05 08:59:37;;;;;;;4.22;3.08;;;19.10;45.10;;;;;;5048513;28;20037;-60
2020/12/05 09:02:03;;;;;;;3.05;2.75;;;19.10;45.20;;;;;;5045324;28;20090;-57
2020/12/05 09:04:29;;;;;;;5.18;3.58;;;19.10;45.20;;;;;;5037080;28;20041;-56
2020/12/05 09:07:09;;;;;;;4.68;3.65;;;19.10;45.10;;;;;;5029937;28;20041;-55
2020/12/05 09:09:35;;;;;;;6.03;4.70;;;19.10;45.10;;;;;;5040813;28;20037;-58
2020/12/05 09:12:05;;;;;;;6.88;4.43;;;19.10;45.10;;;;;;5044449;28;20396;-58
2020/12/05 09:14:31;;;;;;;7.85;4.70;;;19.10;45.10;;;;;;5042665;28;20072;-60
2020/12/05 09:16:56;;;;;;;8.00;5.20;;;19.10;45.10;;;;;;5044331;28;20163;-59
2020/12/05 09:19:24;;;;;;;7.85;5.43;;;19.10;45.20;;;;;;5036944;28;20036;-57
2020/12/05 09:21:49;;;;;;;9.40;6.70;;;19.10;45.20;;;;;;5044810;28;20017;-53
2020/12/05 09:24:15;;;;;;;14.13;8.55;;;19.10;45.30;;;;;;5041589;28;20025;-60
2020/12/05 09:26:50;;;;;;;12.90;7.75;;;19.00;45.40;;;;;;5047629;28;20067;-61
2020/12/05 09:29:16;;;;;;;15.07;9.75;;;19.00;45.50;;;;;;5050650;28;20029;-59
2020/12/05 09:31:52;;;;;;;12.60;7.03;;;19.00;45.70;;;;;;5043648;28;20083;-57
2020/12/05 09:34:36;;;;;;;6.72;5.03;;;18.90;45.90;;;;;;5016648;28;20342;-59
2020/12/05 09:37:11;;;;;;;8.15;5.00;;;18.90;45.70;;;;;;5035709;28;20087;-57
2020/12/05 09:39:37;;;;;;;8.00;5.85;;;18.90;45.90;;;;;;5048451;28;20036;-56
2020/12/05 09:42:03;;;;;;;9.32;5.05;;;18.90;45.90;;;;;;5042014;28;20033;-59
2020/12/05 09:44:28;;;;;;;6.93;4.75;;;18.90;45.80;;;;;;5017234;28;20041;-58
2020/12/05 09:46:54;;;;;;;7.45;5.78;;;18.90;45.80;;;;;;5048745;28;20017;-57
2020/12/05 09:49:19;;;;;;;7.30;5.35;;;18.80;45.60;;;;;;5046837;28;20033;-55
2020/12/05 09:51:44;;;;;;;6.95;5.05;;;18.80;45.60;;;;;;5047596;28;20036;-61
2020/12/05 09:54:10;;;;;;;9.18;5.45;;;18.80;45.60;;;;;;5047564;28;20395;-57
2020/12/05 09:56:35;;;;;;;10.20;6.38;;;18.80;45.60;;;;;;5045968;28;20037;-55
2020/12/05 09:59:01;;;;;;;8.63;5.68;;;18.70;45.70;;;;;;5024374;28;20037;-59
2020/12/05 10:01:29;;;;;;;13.20;6.65;;;18.70;46.50;;;;;;5041914;28;20533;-58
2020/12/05 10:03:55;;;;;;;12.75;7.38;;;18.70;46.00;;;;;;5047866;28;20117;-59
2020/12/05 10:06:21;;;;;;;9.80;6.07;;;18.70;46.10;;;;;;5019505;28;20123;-57
2020/12/05 10:08:47;;;;;;;10.30;5.10;;;18.80;45.80;;;;;;5044577;28;20430;-55
2020/12/05 10:11:12;;;;;;;7.85;5.22;;;18.90;45.60;;;;;;5037002;28;20034;-58
2020/12/05 10:13:38;;;;;;;7.53;5.43;;;19.00;45.80;;;;;;5043975;28;20033;-60
2020/12/05 10:16:03;;;;;;;6.93;4.88;;;19.20;46.10;;;;;;5038975;28;20021;-58
2020/12/05 10:18:29;;;;;;;9.25;5.43;;;19.40;46.20;;;;;;5035227;28;20032;-59
2020/12/05 10:20:54;;;;;;;7.57;4.80;;;19.60;46.10;;;;;;5040490;28;20071;-57
2020/12/05 10:23:20;;;;;;;7.00;4.65;;;19.80;46.10;;;;;;5047341;28;20037;-59
2020/12/05 10:25:45;;;;;;;8.18;5.47;;;20.10;46.10;;;;;;5036949;28;20025;-59
2020/12/05 10:28:11;;;;;;;9.02;5.28;;;20.40;46.10;;;;;;5036540;28;20673;-55
2020/12/05 10:30:36;;;;;;;7.53;4.95;;;20.60;46.00;;;;;;5040882;28;20124;-57
2020/12/05 10:33:02;;;;;;;8.65;5.20;;;20.70;45.70;;;;;;5035898;28;20075;-56
2020/12/05 10:35:27;;;;;;;7.00;5.13;;;20.80;45.40;;;;;;5019759;28;20632;-57
2020/12/05 10:37:53;;;;;;;6.25;4.75;;;20.90;45.40;;;;;;5032593;28;20040;-58
2020/12/05 10:40:18;;;;;;;6.28;4.30;;;20.90;45.10;;;;;;5037249;28;20039;-60
2020/12/05 10:42:44;;;;;;;6.55;4.57;;;20.90;45.00;;;;;;5012741;28;20037;-60
2020/12/05 10:45:09;;;;;;;8.77;4.60;;;20.90;44.80;;;;;;5037966;28;20021;-60
2020/12/05 10:47:34;;;;;;;6.22;4.43;;;20.90;44.80;;;;;;5040382;28;20035;-58
2020/12/05 10:50:00;;;;;;;5.22;4.60;;;20.80;44.70;;;;;;5036820;28;20036;-55
2020/12/05 10:52:26;;;;;;;6.45;4.63;;;20.80;44.50;;;;;;5037043;28;20029;-58
2020/12/05 10:54:52;;;;;;;10.77;4.93;;;20.80;44.50;;;;;;5045883;28;20021;-59
2020/12/05 10:57:17;;;;;;;7.00;4.70;;;20.70;44.40;;;;;;4991589;28;20038;-57
2020/12/05 10:59:43;;;;;;;19.20;9.65;;;20.60;44.40;;;;;;5026859;28;20107;-60
2020/12/05 11:02:09;;;;;;;9.50;6.43;;;20.70;44.70;;;;;;5041840;28;20029;-60
2020/12/05 11:04:34;;;;;;;11.45;6.53;;;20.60;44.50;;;;;;5039181;28;20112;-61
2020/12/05 11:07:00;;;;;;;17.95;10.27;;;20.60;44.50;;;;;;5043945;28;20040;-57
2020/12/05 11:09:25;;;;;;;17.23;9.45;;;20.50;44.70;;;;;;5035103;28;20807;-57
2020/12/05 11:11:52;;;;;;;28.55;16.42;;;20.50;44.80;;;;;;5036324;28;20048;-58
2020/12/05 11:14:17;;;;;;;14.52;9.55;;;20.40;45.20;;;;;;5035130;28;20605;-56
2020/12/05 11:16:43;;;;;;;32.15;18.13;;;20.40;45.10;;;;;;5043702;28;20037;-52
2020/12/05 11:19:08;;;;;;;28.52;14.85;;;20.30;45.40;;;;;;5041379;28;20033;-54
2020/12/05 11:21:34;;;;;;;29.73;14.85;;;20.30;45.50;;;;;;5035587;28;20507;-58
2020/12/05 11:23:59;;;;;;;29.65;16.13;;;20.30;45.30;;;;;;5028620;28;20065;-58
2020/12/05 11:26:25;;;;;;;39.08;19.85;;;20.20;45.20;;;;;;5032750;28;20037;-57
2020/12/05 11:28:50;;;;;;;52.45;24.80;;;20.20;45.80;;;;;;5039217;28;20543;-61
2020/12/05 11:31:16;;;;;;;62.47;31.58;;;20.20;45.90;;;;;;5029735;28;20052;-60
2020/12/05 11:33:41;;;;;;;64.97;34.15;;;20.20;47.10;;;;;;5029860;28;20041;-54
2020/12/05 11:36:07;;;;;;;74.35;33.95;;;20.20;47.00;;;;;;5044756;28;20041;-55
2020/12/05 11:38:32;;;;;;;76.50;37.78;;;20.20;47.00;;;;;;5033921;28;20048;-55
2020/12/05 11:40:58;;;;;;;78.10;37.75;;;20.20;47.60;;;;;;5029989;28;20033;-54
2020/12/05 11:43:23;;;;;;;72.65;36.65;;;20.20;48.30;;;;;;5041827;28;20037;-57
2020/12/05 11:45:49;;;;;;;80.82;37.67;;;20.20;48.50;;;;;;5020746;28;20119;-58
2020/12/05 11:48:14;;;;;;;68.55;33.53;;;20.10;48.30;;;;;;5036063;28;20174;-58
2020/12/05 11:50:40;;;;;;;71.57;32.83;;;20.10;48.80;;;;;;5037963;28;20072;-58
2020/12/05 11:53:08;;;;;;;71.10;31.83;;;20.10;49.10;;;;;;5034669;28;20033;-57
2020/12/05 11:55:33;;;;;;;65.93;30.50;;;20.10;49.70;;;;;;5038310;28;20026;-58
2020/12/05 11:57:59;;;;;;;60.03;28.10;;;20.10;49.40;;;;;;5037927;28;20029;-59
2020/12/05 12:00:25;;;;;;;62.38;30.00;;;20.00;49.60;;;;;;5040846;28;20082;-58
2020/12/05 12:02:52;;;;;;;50.97;23.83;;;20.00;48.60;;;;;;5005752;28;20029;-60
2020/12/05 12:05:18;;;;;;;44.70;22.33;;;19.90;47.40;;;;;;5040067;28;20044;-59
2020/12/05 12:07:43;;;;;;;50.17;23.33;;;19.80;47.50;;;;;;5044144;28;20032;-59
2020/12/05 12:10:09;;;;;;;53.10;24.50;;;19.70;48.10;;;;;;5042707;28;20025;-61
2020/12/05 12:12:35;;;;;;;50.22;22.85;;;19.70;48.40;;;;;;5027313;28;20030;-59
2020/12/05 12:15:01;;;;;;;45.60;22.75;;;19.70;48.30;;;;;;5038327;28;20531;-58
2020/12/05 12:17:26;;;;;;;44.45;22.33;;;19.60;48.90;;;;;;5039952;28;20021;-60
2020/12/05 12:19:52;;;;;;;47.08;21.63;;;19.60;48.70;;;;;;5040818;28;20025;-61
2020/12/05 12:22:23;;;;;;;54.65;23.75;;;19.50;48.90;;;;;;4361619;28;10001313;-59
2020/12/05 12:24:49;;;;;;;44.22;22.75;;;19.50;49.60;;;;;;4992789;28;20258;-65
2020/12/05 12:27:14;;;;;;;43.97;23.85;;;19.50;49.60;;;;;;3242619;28;10001088;-64
2020/12/05 12:29:40;;;;;;;47.25;24.55;;;19.50;49.50;;;;;;4126639;28;10001006;-64
2020/12/05 12:32:05;;;;;;;46.30;22.30;;;19.50;49.50;;;;;;4122874;28;10000852;-62
2020/12/05 12:34:31;;;;;;;46.13;23.00;;;19.50;49.50;;;;;;4997826;28;20033;-64
2020/12/05 12:36:56;;;;;;;42.92;19.88;;;19.50;49.80;;;;;;4998499;28;20715;-62
2020/12/05 12:39:22;;;;;;;44.60;22.45;;;19.50;49.40;;;;;;5002493;28;20335;-62
2020/12/05 12:41:47;;;;;;;42.88;20.85;;;19.50;49.70;;;;;;5002612;28;20026;-63
2020/12/05 12:44:13;;;;;;;45.60;20.48;;;19.50;50.00;;;;;;5002494;28;20240;-60